Time;durP1;ratioP1;P1;durP2;ratioP2;P2;SDS_P1;SDS_P2;PMS_P1;PMS_P2;Temp;Humidity;BMP_temperature;BMP_pressure;BME280_temperature;BME280_humidity;BME280_pressure;Samples;Min_cycle;Max_cycle;Signal;HPM_P1;HPM_P2
2023/10/29 00:00:07;;;;;;;0.98;0.98;;;;;;;12.50;86.28;96786.31;5024098;28;20546;-62
2023/10/29 00:02:34;;;;;;;1.00;1.00;;;;;;;12.50;85.76;96797.41;5023937;28;20548;-62
2023/10/29 00:05:01;;;;;;;1.00;1.00;;;;;;;12.44;86.21;96796.16;5023723;28;20049;-62
2023/10/29 00:07:28;;;;;;;1.00;1.00;;;;;;;12.46;86.30;96802.13;5024483;28;20041;-62
2023/10/29 00:09:55;;;;;;;0.90;0.90;;;;;;;12.52;85.96;96786.69;5024070;28;20046;-62
2023/10/29 00:12:22;;;;;;;1.00;1.00;;;;;;;12.55;86.33;96788.69;4987746;28;20073;-61
2023/10/29 00:14:48;;;;;;;1.08;1.08;;;;;;;12.77;85.67;96793.16;5004211;28;20404;-63
2023/10/29 00:17:16;;;;;;;1.00;1.00;;;;;;;12.83;85.21;96797.19;5014754;28;20103;-62
2023/10/29 00:19:43;;;;;;;1.00;1.00;;;;;;;12.86;85.23;96799.19;5022212;28;20049;-62
2023/10/29 00:22:11;;;;;;;1.20;1.20;;;;;;;12.33;85.20;96736.97;5024469;28;20049;-62
2023/10/29 00:24:38;;;;;;;0.98;0.98;;;;;;;12.27;85.15;96727.44;5023998;28;20037;-62
2023/10/29 00:27:05;;;;;;;1.00;1.00;;;;;;;12.81;84.44;96802.31;5023757;28;20596;-62
2023/10/29 00:29:32;;;;;;;1.00;1.00;;;;;;;12.84;82.93;96812.66;5023739;28;20449;-61
2023/10/29 00:31:59;;;;;;;1.00;1.00;;;;;;;12.60;81.87;96802.22;5024345;28;20072;-62
2023/10/29 00:34:25;;;;;;;0.90;0.90;;;;;;;12.29;82.79;96790.91;5024126;28;20049;-62
2023/10/29 00:36:52;;;;;;;1.00;1.00;;;;;;;12.35;83.04;96809.63;5005261;28;20049;-62
2023/10/29 00:39:18;;;;;;;1.00;1.00;;;;;;;12.25;83.47;96813.09;5002744;28;20057;-62
2023/10/29 00:41:45;;;;;;;1.00;1.00;;;;;;;12.13;84.15;96811.47;4986419;28;20455;-62
2023/10/29 00:44:12;;;;;;;0.90;0.90;;;;;;;12.10;84.38;96816.97;5004261;28;20077;-61
2023/10/29 00:46:40;;;;;;;0.80;0.80;;;;;;;12.11;84.60;96813.00;5004435;28;20492;-62
2023/10/29 00:49:08;;;;;;;0.90;0.90;;;;;;;11.98;85.03;96820.84;5004075;28;20061;-62
2023/10/29 00:51:35;;;;;;;1.00;1.00;;;;;;;11.83;86.41;96835.00;5003915;28;20064;-63
2023/10/29 00:54:02;;;;;;;0.90;0.90;;;;;;;11.66;87.60;96828.13;5003742;28;20060;-63
2023/10/29 00:56:29;;;;;;;0.90;0.90;;;;;;;11.21;87.71;96758.28;5003851;28;20068;-62
2023/10/29 00:58:56;;;;;;;1.00;1.00;;;;;;;11.56;88.50;96808.56;5004041;28;20049;-62
2023/10/29 01:01:24;;;;;;;1.00;1.00;;;;;;;11.33;88.45;96783.81;5003824;28;20053;-63
2023/10/29 01:03:51;;;;;;;0.90;0.90;;;;;;;11.19;88.35;96744.03;5005356;28;20168;-62
2023/10/29 01:06:18;;;;;;;0.90;0.90;;;;;;;11.56;88.77;96808.56;5007625;28;20057;-61
2023/10/29 01:08:45;;;;;;;0.90;0.90;;;;;;;11.70;88.83;96828.94;4989783;28;20108;-60
2023/10/29 01:11:12;;;;;;;0.90;0.90;;;;;;;11.75;88.73;96830.56;5006906;28;20145;-62
2023/10/29 01:13:39;;;;;;;1.00;1.00;;;;;;;11.27;89.00;96767.88;4989739;28;20441;-61
2023/10/29 01:16:06;;;;;;;0.90;0.90;;;;;;;11.70;88.23;96837.28;5007516;28;20506;-61
2023/10/29 01:18:33;;;;;;;1.00;1.00;;;;;;;11.36;90.54;96841.28;5027574;28;20128;-62
2023/10/29 01:21:00;;;;;;;0.88;0.88;;;;;;;11.31;90.26;96846.34;5025822;28;20053;-61
2023/10/29 01:23:28;;;;;;;0.80;0.80;;;;;;;11.31;90.22;96815.84;5027377;28;20081;-61
2023/10/29 01:25:59;;;;;;;0.80;0.80;;;;;;;11.38;89.94;96824.25;5026763;28;20056;-61
2023/10/29 01:28:26;;;;;;;0.90;0.90;;;;;;;11.52;89.58;96829.94;5025630;28;20558;-62
2023/10/29 01:30:53;;;;;;;0.90;0.90;;;;;;;11.54;89.01;96830.34;5026874;28;20088;-62
2023/10/29 01:33:20;;;;;;;0.90;0.90;;;;;;;11.30;90.04;96844.75;5027116;28;20060;-62
2023/10/29 01:35:47;;;;;;;0.80;0.80;;;;;;;10.93;92.32;96850.25;5026916;28;20060;-62
2023/10/29 01:38:13;;;;;;;0.80;0.80;;;;;;;10.34;91.50;96729.22;5026932;28;20083;-62
2023/10/29 01:40:40;;;;;;;0.90;0.90;;;;;;;11.05;91.79;96846.47;5026799;28;20128;-61
2023/10/29 01:43:07;;;;;;;0.90;0.90;;;;;;;11.21;91.55;96841.47;5025281;28;20053;-62
2023/10/29 01:45:34;;;;;;;0.90;0.90;;;;;;;11.21;89.18;96819.28;5008587;28;20336;-62
2023/10/29 01:48:00;;;;;;;0.90;0.90;;;;;;;11.50;89.27;96854.47;5026331;28;20064;-62
2023/10/29 01:50:27;;;;;;;0.90;0.90;;;;;;;11.63;88.54;96853.06;5026327;28;20493;-62
2023/10/29 01:52:55;;;;;;;1.00;1.00;;;;;;;11.78;87.02;96857.53;5026385;28;20951;-61
2023/10/29 01:55:21;;;;;;;0.90;0.90;;;;;;;11.45;87.39;96863.13;5026375;28;20049;-61
2023/10/29 01:57:48;;;;;;;0.90;0.90;;;;;;;11.44;87.82;96844.91;5026185;28;20045;-60
2023/10/29 02:00:17;;;;;;;0.90;0.90;;;;;;;11.60;87.21;96865.66;5025879;28;20068;-62
2023/10/29 02:02:45;;;;;;;0.90;0.90;;;;;;;11.62;86.88;96868.06;5025978;28;20053;-61
2023/10/29 02:05:12;;;;;;;0.90;0.90;;;;;;;11.62;86.60;96856.97;5025936;28;20519;-62
2023/10/29 02:07:38;;;;;;;0.90;0.90;;;;;;;11.67;86.80;96856.66;5025780;28;20057;-61
2023/10/29 02:10:06;;;;;;;0.90;0.90;;;;;;;11.82;85.63;96861.16;5025371;28;20049;-62
2023/10/29 02:12:32;;;;;;;0.90;0.90;;;;;;;11.47;85.45;96810.84;5026260;28;20052;-62
2023/10/29 02:14:59;;;;;;;0.90;0.90;;;;;;;11.77;85.78;96853.19;5025727;28;20053;-63
2023/10/29 02:17:27;;;;;;;0.90;0.90;;;;;;;10.79;86.08;96735.69;5026050;28;20424;-61
2023/10/29 02:19:55;;;;;;;0.90;0.90;;;;;;;11.10;86.66;96810.06;5008187;28;20504;-62
2023/10/29 02:22:23;;;;;;;0.90;0.90;;;;;;;11.50;87.19;96866.38;5025974;28;20056;-61
2023/10/29 02:24:50;;;;;;;0.90;0.90;;;;;;;11.51;88.00;96870.72;5025682;28;20049;-61
2023/10/29 02:27:17;;;;;;;0.90;0.90;;;;;;;11.54;88.84;96872.75;5007633;28;20061;-61
2023/10/29 02:29:45;;;;;;;0.90;0.90;;;;;;;11.01;88.87;96766.03;5026425;28;20160;-61
2023/10/29 02:32:12;;;;;;;0.90;0.90;;;;;;;11.77;89.15;96872.63;5026070;28;20049;-61
2023/10/29 02:34:38;;;;;;;0.90;0.90;;;;;;;11.63;88.60;96875.25;5025632;28;20056;-62
2023/10/29 02:37:05;;;;;;;0.90;0.90;;;;;;;11.65;89.75;96878.44;5007895;28;20049;-62
2023/10/29 02:39:32;;;;;;;0.82;0.82;;;;;;;11.37;89.50;96836.50;5025134;28;20552;-63
2023/10/29 02:41:59;;;;;;;0.93;0.93;;;;;;;11.85;89.44;96883.41;5025477;28;20587;-62
2023/10/29 02:44:25;;;;;;;0.98;0.98;;;;;;;12.08;90.27;96885.97;5025405;28;20049;-61
2023/10/29 02:46:52;;;;;;;0.90;0.90;;;;;;;12.23;89.88;96878.56;5025767;28;20490;-62
2023/10/29 02:49:19;;;;;;;0.85;0.85;;;;;;;12.17;88.48;96880.91;5025365;28;20049;-62
2023/10/29 02:51:45;;;;;;;0.98;0.98;;;;;;;12.08;86.59;96885.97;5024688;28;20062;-62
2023/10/29 02:54:12;;;;;;;0.90;0.90;;;;;;;12.14;84.98;96884.44;5025224;28;20132;-62
2023/10/29 02:56:40;;;;;;;0.90;0.90;;;;;;;11.60;85.24;96804.63;5025167;28;20061;-62
2023/10/29 02:59:09;;;;;;;0.90;0.90;;;;;;;12.10;85.18;96900.28;5024890;28;20061;-62
2023/10/29 03:01:36;;;;;;;0.90;0.90;;;;;;;12.02;84.82;96893.06;5025185;28;20052;-62
2023/10/29 03:04:04;;;;;;;0.90;0.90;;;;;;;11.43;85.77;96837.78;5024835;28;20550;-62
2023/10/29 03:06:31;;;;;;;0.80;0.80;;;;;;;11.26;86.80;96832.81;5007088;28;20054;-61
2023/10/29 03:08:58;;;;;;;0.80;0.80;;;;;;;11.65;87.91;96906.19;5007394;28;20045;-62
2023/10/29 03:11:25;;;;;;;1.00;1.00;;;;;;;11.62;87.91;96907.69;5025101;28;20076;-61
2023/10/29 03:13:51;;;;;;;0.82;0.82;;;;;;;11.68;87.85;96916.53;5024762;28;20057;-61
2023/10/29 03:16:18;;;;;;;0.90;0.90;;;;;;;11.72;88.81;96909.03;5025071;28;20049;-62
2023/10/29 03:18:47;;;;;;;0.90;0.90;;;;;;;11.70;89.61;96912.19;5023499;28;20067;-61
2023/10/29 03:21:17;;;;;;;0.90;0.90;;;;;;;11.82;89.25;96905.56;5024655;28;20054;-62
2023/10/29 03:23:43;;;;;;;0.93;0.93;;;;;;;11.56;89.14;96869.59;5010825;28;20326;-61
2023/10/29 03:26:10;;;;;;;0.90;0.90;;;;;;;11.90;88.13;96913.56;5004014;28;20049;-62
2023/10/29 03:28:39;;;;;;;1.00;1.00;;;;;;;11.49;87.93;96830.69;5004676;28;20064;-61
2023/10/29 03:31:16;;;;;;;0.98;0.98;;;;;;;12.08;87.48;96919.28;5005105;28;20147;-62
2023/10/29 03:33:45;;;;;;;1.00;1.00;;;;;;;12.06;87.59;96922.44;5004984;28;20055;-62
2023/10/29 03:36:12;;;;;;;0.90;0.90;;;;;;;11.57;86.60;96876.75;5004715;28;20050;-61
2023/10/29 03:38:39;;;;;;;0.95;0.95;;;;;;;11.80;85.87;96935.69;5004600;28;20057;-63
2023/10/29 03:41:06;;;;;;;0.93;0.93;;;;;;;11.85;85.62;96933.38;5004888;28;20054;-62
2023/10/29 03:43:33;;;;;;;0.90;0.90;;;;;;;11.82;85.69;96938.88;5005017;28;20045;-62
2023/10/29 03:45:59;;;;;;;0.90;0.90;;;;;;;11.86;85.59;96936.91;5004849;28;20113;-63
2023/10/29 03:48:26;;;;;;;1.00;1.00;;;;;;;11.78;86.38;96915.81;4987315;28;20049;-63
2023/10/29 03:50:53;;;;;;;0.88;0.88;;;;;;;11.91;86.90;96937.38;5004912;28;20061;-62
2023/10/29 03:53:20;;;;;;;1.00;1.00;;;;;;;10.82;87.51;96746.81;5004616;28;20581;-63
2023/10/29 03:55:50;;;;;;;0.90;0.90;;;;;;;11.99;88.73;96941.03;5004449;28;20149;-63
2023/10/29 03:58:16;;;;;;;0.90;0.90;;;;;;;11.87;89.67;96933.00;5004953;28;20509;-63
2023/10/29 04:00:50;;;;;;;0.90;0.90;;;;;;;12.00;89.37;96939.84;5004717;28;20050;-63
2023/10/29 04:03:17;;;;;;;0.90;0.90;;;;;;;12.01;89.18;96945.00;5004900;28;20590;-63
2023/10/29 04:05:44;;;;;;;0.80;0.80;;;;;;;11.93;89.96;96946.09;5005060;28;20092;-63
2023/10/29 04:08:11;;;;;;;0.90;0.90;;;;;;;11.76;90.47;96930.06;5004384;28;20054;-61
2023/10/29 04:10:38;;;;;;;0.90;0.90;;;;;;;11.40;90.41;96891.19;5004208;28;20053;-61
2023/10/29 04:13:05;;;;;;;0.90;0.90;;;;;;;11.41;89.94;96924.09;5004055;28;20061;-61
2023/10/29 04:15:31;;;;;;;0.93;0.93;;;;;;;11.64;88.70;96952.56;5004203;28;20421;-62
2023/10/29 04:17:58;;;;;;;0.90;0.90;;;;;;;11.40;88.76;96949.44;5018113;28;20071;-62
2023/10/29 04:20:27;;;;;;;0.90;0.90;;;;;;;11.32;88.84;96950.53;5023960;28;20057;-62
2023/10/29 04:22:54;;;;;;;0.88;0.88;;;;;;;10.98;87.95;96916.44;5005919;28;20435;-61
2023/10/29 04:25:21;;;;;;;0.90;0.90;;;;;;;10.68;87.21;96880.41;5005596;28;20059;-62
2023/10/29 04:27:47;;;;;;;0.90;0.90;;;;;;;11.23;86.23;96969.44;5006199;28;20548;-62
2023/10/29 04:30:14;;;;;;;0.90;0.90;;;;;;;10.73;86.33;96910.56;5023654;28;20049;-61
2023/10/29 04:32:41;;;;;;;0.90;0.90;;;;;;;10.80;87.30;96958.91;5023729;28;20566;-62
2023/10/29 04:35:08;;;;;;;0.70;0.70;;;;;;;10.87;88.43;96992.28;4973453;28;20058;-61
2023/10/29 04:37:35;;;;;;;0.90;0.90;;;;;;;10.93;88.14;96979.69;4984749;28;20192;-63
2023/10/29 04:40:02;;;;;;;0.90;0.90;;;;;;;10.87;88.48;96981.19;4987678;28;20150;-63
2023/10/29 04:42:28;;;;;;;0.82;0.82;;;;;;;10.82;89.36;96984.28;4988781;28;20185;-63
2023/10/29 04:44:55;;;;;;;0.80;0.80;;;;;;;10.81;90.50;96994.59;4988629;28;20073;-63
2023/10/29 04:47:22;;;;;;;0.80;0.80;;;;;;;10.48;91.21;96941.81;4988396;28;20062;-63
2023/10/29 04:49:48;;;;;;;0.80;0.80;;;;;;;10.86;91.61;96990.69;4988440;28;20633;-63
2023/10/29 04:52:15;;;;;;;0.85;0.85;;;;;;;10.90;91.81;96991.53;4988658;28;20054;-63
2023/10/29 04:54:42;;;;;;;0.85;0.85;;;;;;;10.98;91.90;96993.25;4988635;28;20068;-63
2023/10/29 04:57:09;;;;;;;0.80;0.80;;;;;;;10.32;91.76;96894.91;4970894;28;20050;-63
2023/10/29 04:59:36;;;;;;;0.80;0.80;;;;;;;11.12;91.70;96993.44;4988518;28;20050;-63
2023/10/29 05:02:04;;;;;;;0.80;0.80;;;;;;;11.24;91.25;96996.00;4988087;28;20053;-63
2023/10/29 05:04:31;;;;;;;0.80;0.80;;;;;;;11.25;91.32;96997.59;4987871;28;20058;-64
2023/10/29 05:06:58;;;;;;;0.80;0.80;;;;;;;10.91;91.86;96934.97;4988403;28;20136;-63
2023/10/29 05:09:24;;;;;;;0.90;0.90;;;;;;;11.15;90.78;96976.06;4987868;28;20054;-63
2023/10/29 05:11:51;;;;;;;1.00;1.00;;;;;;;11.44;90.35;97012.13;4988141;28;20054;-63
2023/10/29 05:14:18;;;;;;;0.90;0.90;;;;;;;11.57;88.81;97004.38;4987429;28;20074;-63
2023/10/29 05:16:45;;;;;;;0.90;0.90;;;;;;;11.63;88.39;97027.84;4988339;28;20076;-63
2023/10/29 05:19:12;;;;;;;0.90;0.90;;;;;;;11.68;88.33;97016.41;5026928;28;20429;-63
2023/10/29 05:21:39;;;;;;;0.80;0.80;;;;;;;11.66;88.24;97024.31;5027285;28;20056;-62
2023/10/29 05:24:07;;;;;;;1.00;1.00;;;;;;;11.73;88.82;97024.38;5026974;28;20053;-63
2023/10/29 05:26:36;;;;;;;0.90;0.90;;;;;;;11.54;88.65;96977.38;5009033;28;20085;-62
2023/10/29 05:29:04;;;;;;;0.90;0.90;;;;;;;11.87;88.71;97008.69;5026933;28;20528;-64
2023/10/29 05:31:32;;;;;;;1.00;1.00;;;;;;;12.25;88.26;97026.94;5025852;28;20141;-63
2023/10/29 05:33:59;;;;;;;0.90;0.90;;;;;;;12.06;88.09;97038.28;5026479;28;20616;-63
2023/10/29 05:36:25;;;;;;;1.00;1.00;;;;;;;11.97;86.39;97034.97;5026021;28;20052;-62
2023/10/29 05:38:52;;;;;;;0.90;0.90;;;;;;;11.80;88.41;97052.22;5025750;28;20057;-63
2023/10/29 05:41:19;;;;;;;0.90;0.90;;;;;;;12.07;86.24;97035.13;5025807;28;20111;-63
2023/10/29 05:43:46;;;;;;;1.00;1.00;;;;;;;12.37;85.39;97032.25;5025900;28;20049;-63
2023/10/29 05:46:14;;;;;;;1.00;1.00;;;;;;;12.21;85.27;97040.00;5008768;28;20480;-63
2023/10/29 05:48:41;;;;;;;1.00;1.00;;;;;;;12.42;85.29;97029.13;5026870;28;20128;-63
2023/10/29 05:51:12;;;;;;;1.00;1.00;;;;;;;12.52;85.05;97006.19;5026337;28;20042;-64
2023/10/29 05:53:39;;;;;;;1.00;1.00;;;;;;;13.07;84.51;97055.09;5009061;28;20060;-63
2023/10/29 05:56:06;;;;;;;1.00;1.00;;;;;;;13.37;84.02;97058.50;5026536;28;20045;-63
2023/10/29 05:58:33;;;;;;;1.00;1.00;;;;;;;13.46;85.60;97050.63;5026458;28;20049;-63
2023/10/29 06:01:01;;;;;;;1.05;1.05;;;;;;;13.63;85.83;97054.66;5008620;28;20053;-63
2023/10/29 06:03:27;;;;;;;1.00;1.00;;;;;;;13.53;85.25;97017.25;5008631;28;20051;-63
2023/10/29 06:05:55;;;;;;;1.10;1.10;;;;;;;13.91;84.26;97057.56;5026148;28;20088;-64
2023/10/29 06:08:22;;;;;;;1.20;1.20;;;;;;;14.13;83.70;97067.63;5026170;28;20085;-64
2023/10/29 06:10:50;;;;;;;1.10;1.10;;;;;;;14.27;82.42;97061.34;5026170;28;20491;-64
2023/10/29 06:13:17;;;;;;;1.20;1.20;;;;;;;14.45;80.63;97068.53;5025790;28;20057;-63
2023/10/29 06:15:43;;;;;;;1.08;1.08;;;;;;;14.53;80.57;97063.78;5025757;28;20587;-64
2023/10/29 06:18:10;;;;;;;1.10;1.10;;;;;;;13.93;81.67;97049.63;5014400;28;20053;-63
2023/10/29 06:20:41;;;;;;;1.10;1.10;;;;;;;14.45;80.96;97082.47;4988801;28;20060;-63
2023/10/29 06:23:08;;;;;;;1.20;1.20;;;;;;;14.69;79.16;97072.56;4988684;28;20132;-63
2023/10/29 06:25:36;;;;;;;1.10;1.10;;;;;;;14.83;78.60;97067.00;5006169;28;20062;-64
2023/10/29 06:28:03;;;;;;;1.40;1.40;;;;;;;14.70;77.43;97030.34;4988591;28;20137;-63
2023/10/29 06:30:30;;;;;;;1.40;1.40;;;;;;;15.12;76.88;97068.63;5005960;28;20050;-63
2023/10/29 06:33:01;;;;;;;1.30;1.30;;;;;;;14.95;76.05;97024.78;4988488;28;20077;-64
2023/10/29 06:35:28;;;;;;;1.10;1.10;;;;;;;15.39;76.03;97072.63;5006111;28;20141;-64
2023/10/29 06:37:55;;;;;;;1.50;1.50;;;;;;;15.49;75.33;97060.59;5006054;28;20060;-63
2023/10/29 06:40:25;;;;;;;1.40;1.40;;;;;;;15.64;74.65;97062.19;5006046;28;20518;-63
2023/10/29 06:42:52;;;;;;;1.50;1.50;;;;;;;15.77;75.07;97071.75;5005788;28;20057;-63
2023/10/29 06:45:19;;;;;;;1.42;1.42;;;;;;;15.86;74.79;97069.31;5005773;28;20054;-63
2023/10/29 06:47:46;;;;;;;1.38;1.38;;;;;;;16.11;74.27;97072.00;5005792;28;20555;-63
2023/10/29 06:50:13;;;;;;;1.40;1.40;;;;;;;16.25;73.33;97069.94;5005404;28;20232;-64
2023/10/29 06:52:40;;;;;;;1.50;1.50;;;;;;;16.19;72.81;97026.84;5005764;28;20081;-63
2023/10/29 06:55:08;;;;;;;1.58;1.58;;;;;;;16.59;72.33;97079.38;5005667;28;20445;-62
2023/10/29 06:57:38;;;;;;;1.50;1.50;;;;;;;16.34;72.34;97028.34;4988352;28;20064;-64
2023/10/29 07:00:07;;;;;;;1.80;1.80;;;;;;;16.27;73.45;97028.41;5005424;28;20081;-64
2023/10/29 07:02:35;;;;;;;1.80;1.80;;;;;;;16.76;72.88;97076.88;5004560;28;20053;-62
2023/10/29 07:05:03;;;;;;;1.60;1.60;;;;;;;16.69;73.41;97076.94;5005225;28;20129;-62
2023/10/29 07:07:30;;;;;;;1.60;1.60;;;;;;;16.77;72.64;97084.06;5005327;28;20050;-62
2023/10/29 07:09:56;;;;;;;1.77;1.77;;;;;;;16.74;72.45;97080.06;5005012;28;20050;-62
2023/10/29 07:12:23;;;;;;;1.52;1.52;;;;;;;17.01;72.00;97083.09;5005099;28;20140;-62
2023/10/29 07:14:50;;;;;;;1.70;1.70;;;;;;;17.06;71.50;97085.44;5005671;28;20060;-62
2023/10/29 07:17:17;;;;;;;1.90;1.90;;;;;;;17.26;71.44;97090.06;5008925;28;20136;-62
2023/10/29 07:19:44;;;;;;;1.48;1.48;;;;;;;17.48;70.33;97093.53;5024575;28;20046;-62
2023/10/29 07:22:10;;;;;;;1.52;1.52;;;;;;;17.67;69.57;97070.53;5024916;28;20050;-62
2023/10/29 07:24:37;;;;;;;1.85;1.85;;;;;;;17.99;68.92;97087.78;5024695;28;20064;-62
2023/10/29 07:27:04;;;;;;;1.63;1.63;;;;;;;18.18;67.81;97084.34;5024438;28;20060;-62
2023/10/29 07:29:31;;;;;;;1.80;1.80;;;;;;;18.09;68.68;97082.06;5024575;28;20139;-62
2023/10/29 07:31:59;;;;;;;1.90;1.90;;;;;;;17.96;69.34;97083.81;5024083;28;20111;-61
2023/10/29 07:34:26;;;;;;;1.77;1.77;;;;;;;17.80;69.21;97051.97;5023991;28;20476;-62
2023/10/29 07:36:52;;;;;;;1.80;1.80;;;;;;;18.55;67.93;97089.94;5024433;28;20081;-62
2023/10/29 07:39:19;;;;;;;1.95;1.95;;;;;;;18.91;67.14;97099.44;5024103;28;20053;-61
2023/10/29 07:41:46;;;;;;;1.95;1.95;;;;;;;18.24;65.39;96995.75;5024750;28;20573;-62
2023/10/29 07:44:14;;;;;;;2.13;2.13;;;;;;;19.13;65.29;97117.56;5006273;28;20076;-61
2023/10/29 07:46:40;;;;;;;2.10;2.10;;;;;;;19.37;64.22;97099.56;5023257;28;20049;-61
2023/10/29 07:49:07;;;;;;;1.75;1.75;;;;;;;19.30;64.73;97091.22;5024141;28;20053;-62
2023/10/29 07:51:34;;;;;;;1.77;1.77;;;;;;;19.52;63.61;97094.50;5006043;28;20077;-62
2023/10/29 07:54:01;;;;;;;2.00;2.00;;;;;;;19.89;62.65;97097.03;5023786;28;20059;-61
2023/10/29 07:56:28;;;;;;;1.83;1.83;;;;;;;20.11;60.88;97108.66;5024252;28;20049;-62
2023/10/29 07:58:55;;;;;;;2.10;2.10;;;;;;;20.14;60.33;97102.22;5024152;28;20045;-63
2023/10/29 08:01:22;;;;;;;2.05;2.05;;;;;;;20.30;59.91;97105.88;5024469;28;20041;-63
2023/10/29 08:03:50;;;;;;;2.00;2.00;;;;;;;20.61;58.28;97103.66;5023650;28;20440;-62
2023/10/29 08:06:17;;;;;;;2.20;2.20;;;;;;;20.61;57.65;97106.47;5024231;28;20478;-61
2023/10/29 08:08:43;;;;;;;1.77;1.77;;;;;;;19.91;58.19;97103.03;5024335;28;20464;-61
2023/10/29 08:11:20;;;;;;;1.98;1.98;;;;;;;19.95;57.89;97053.13;5006299;28;20049;-61
2023/10/29 08:13:48;;;;;;;1.95;1.95;;;;;;;20.66;56.65;97103.16;5023501;28;20053;-61
2023/10/29 08:16:15;;;;;;;2.53;2.42;;;;;;;20.43;55.95;97072.25;5023927;28;20050;-62
2023/10/29 08:18:42;;;;;;;2.08;2.08;;;;;;;20.82;55.35;97084.25;4990944;28;20084;-63
2023/10/29 08:21:08;;;;;;;2.35;2.33;;;;;;;21.00;55.03;97103.59;5004061;28;20064;-62
2023/10/29 08:23:35;;;;;;;2.20;2.20;;;;;;;20.96;54.72;97085.97;5003818;28;20141;-61
2023/10/29 08:26:03;;;;;;;2.10;2.10;;;;;;;21.47;53.80;97104.88;5003936;28;20054;-62
2023/10/29 08:28:30;;;;;;;2.40;2.30;;;;;;;21.68;53.32;97115.63;4986361;28;20046;-61
2023/10/29 08:30:57;;;;;;;2.10;2.10;;;;;;;21.53;52.49;97103.13;5004136;28;20065;-62
2023/10/29 08:33:24;;;;;;;2.30;2.30;;;;;;;21.11;52.78;97112.59;5004094;28;20053;-61
2023/10/29 08:35:51;;;;;;;2.53;2.42;;;;;;;21.15;52.79;97071.03;5003757;28;20049;-62
2023/10/29 08:38:19;;;;;;;2.20;2.20;;;;;;;21.79;52.01;97116.19;4986594;28;20058;-62
2023/10/29 08:40:45;;;;;;;2.45;2.35;;;;;;;22.46;50.29;97120.00;5003821;28;20432;-62
2023/10/29 08:43:13;;;;;;;2.60;2.50;;;;;;;22.67;49.33;97112.97;4986375;28;20056;-61
2023/10/29 08:45:41;;;;;;;2.72;2.63;;;;;;;22.73;48.91;97111.97;5003573;28;20057;-62
2023/10/29 08:48:10;;;;;;;2.85;2.75;;;;;;;22.86;48.50;97120.47;5004076;28;20096;-61
2023/10/29 08:50:38;;;;;;;2.55;2.45;;;;;;;22.90;48.86;97115.50;5004021;28;20050;-62
2023/10/29 08:53:05;;;;;;;2.50;2.40;;;;;;;23.25;48.12;97120.06;5003561;28;20046;-61
2023/10/29 08:55:34;;;;;;;2.90;2.80;;;;;;;23.36;47.61;97080.97;5003756;28;20575;-61
2023/10/29 08:58:01;;;;;;;2.75;2.65;;;;;;;23.88;46.64;97106.69;5004172;28;20058;-62
2023/10/29 09:00:28;;;;;;;2.78;2.67;;;;;;;24.14;46.15;97107.44;5004174;28;20061;-62
2023/10/29 09:03:13;;;;;;;2.95;2.85;;;;;;;23.57;45.26;97057.63;5011424;28;20053;-62
2023/10/29 09:05:41;;;;;;;3.10;3.00;;;;;;;23.81;45.98;97101.25;5023647;28;20084;-62
2023/10/29 09:08:08;;;;;;;2.97;2.88;;;;;;;23.71;45.69;97040.97;5023108;28;20136;-63
2023/10/29 09:10:41;;;;;;;3.05;2.95;;;;;;;24.40;45.66;97092.72;5022114;28;20089;-62
2023/10/29 09:13:09;;;;;;;3.38;3.28;;;;;;;24.44;44.52;97058.59;5023141;28;20504;-61
2023/10/29 09:15:36;;;;;;;3.25;3.15;;;;;;;24.57;43.70;97091.25;5023649;28;20065;-62
2023/10/29 09:18:03;;;;;;;3.25;3.15;;;;;;;24.38;44.00;97094.41;5023296;28;20045;-62
2023/10/29 09:20:31;;;;;;;2.97;2.88;;;;;;;24.35;44.38;97096.13;5023591;28;20057;-62
2023/10/29 09:22:58;;;;;;;3.05;2.95;;;;;;;24.28;44.26;97090.72;5023523;28;20072;-60
2023/10/29 09:25:25;;;;;;;2.97;2.88;;;;;;;24.29;44.16;97103.63;5025601;28;20049;-62
2023/10/29 09:27:53;;;;;;;3.17;3.08;;;;;;;24.28;43.77;97090.72;5027394;28;20055;-61
2023/10/29 09:30:19;;;;;;;3.45;3.35;;;;;;;24.26;43.42;97047.91;5026946;28;20081;-61
2023/10/29 09:32:46;;;;;;;3.45;3.35;;;;;;;24.42;43.15;97081.69;5026959;28;20539;-61
2023/10/29 09:35:13;;;;;;;3.30;3.20;;;;;;;24.64;42.64;97096.66;5026849;28;20046;-61
2023/10/29 09:37:39;;;;;;;3.40;3.30;;;;;;;24.58;42.42;97092.81;5027109;28;20049;-61
2023/10/29 09:40:09;;;;;;;3.25;3.15;;;;;;;24.69;42.39;97098.91;5026455;28;20049;-62
2023/10/29 09:42:43;;;;;;;3.13;3.03;;;;;;;24.81;42.44;97095.22;5008687;28;20054;-61
2023/10/29 09:45:12;;;;;;;3.05;2.95;;;;;;;24.69;42.09;97087.56;5026545;28;20087;-62
2023/10/29 09:47:39;;;;;;;3.00;2.90;;;;;;;24.80;41.95;97085.13;5026359;28;20053;-61
2023/10/29 09:50:08;;;;;;;3.13;3.03;;;;;;;24.46;42.61;97085.19;5026227;28;20057;-64
2023/10/29 09:52:36;;;;;;;3.30;3.20;;;;;;;24.67;42.24;97078.78;5025836;28;20538;-62
2023/10/29 09:55:04;;;;;;;2.83;2.72;;;;;;;24.83;42.48;97080.59;5025970;28;20064;-62
2023/10/29 09:57:31;;;;;;;3.20;3.10;;;;;;;24.44;42.17;97079.19;5026193;28;20053;-64
2023/10/29 09:59:59;;;;;;;3.25;3.15;;;;;;;24.07;42.76;96994.44;5026166;28;20049;-62
2023/10/29 10:02:28;;;;;;;3.25;3.15;;;;;;;24.38;41.80;97004.56;5025988;28;20053;-62
2023/10/29 10:04:56;;;;;;;3.25;3.15;;;;;;;25.01;41.55;97075.81;5001405;28;20507;-63
2023/10/29 10:07:25;;;;;;;3.35;3.25;;;;;;;23.96;42.47;97039.28;5037612;28;20057;-62
2023/10/29 10:09:53;;;;;;;3.38;3.28;;;;;;;24.38;42.51;97075.38;5026010;28;20053;-63
2023/10/29 10:12:20;;;;;;;2.92;2.83;;;;;;;24.64;42.12;97074.00;5025812;28;20056;-63
2023/10/29 10:14:48;;;;;;;3.38;3.28;;;;;;;23.92;43.15;97076.19;5026162;28;20061;-63
2023/10/29 10:17:15;;;;;;;3.17;3.08;;;;;;;24.41;42.73;97071.63;5026247;28;20103;-63
2023/10/29 10:19:42;;;;;;;2.72;2.63;;;;;;;24.65;42.53;97080.44;5025789;28;20512;-63
2023/10/29 10:22:09;;;;;;;3.17;3.08;;;;;;;24.00;43.05;97079.59;5024875;28;20515;-65
2023/10/29 10:24:43;;;;;;;2.70;2.60;;;;;;;22.93;44.23;97007.22;5025440;28;20649;-62
2023/10/29 10:27:14;;;;;;;2.83;2.72;;;;;;;23.60;44.29;97135.94;5025517;28;20061;-65
2023/10/29 10:29:41;;;;;;;2.70;2.60;;;;;;;23.47;44.52;97089.88;5026362;28;20421;-63
2023/10/29 10:32:08;;;;;;;2.97;2.88;;;;;;;23.52;44.82;97078.00;5025906;28;20053;-65
2023/10/29 10:34:37;;;;;;;2.63;2.53;;;;;;;23.65;44.16;97078.75;5007300;28;20057;-63
2023/10/29 10:37:05;;;;;;;2.55;2.45;;;;;;;23.14;44.65;97060.25;5025447;28;20128;-61
2023/10/29 10:39:32;;;;;;;2.67;2.58;;;;;;;22.48;45.81;96994.09;5025256;28;20056;-62
2023/10/29 10:42:01;;;;;;;2.65;2.55;;;;;;;23.20;44.92;97075.41;5025598;28;20532;-64
2023/10/29 10:44:29;;;;;;;2.70;2.60;;;;;;;23.03;45.46;97062.63;5007689;28;20057;-65
2023/10/29 10:46:58;;;;;;;2.80;2.70;;;;;;;23.41;44.99;97077.56;5024867;28;20056;-64
2023/10/29 10:49:26;;;;;;;2.72;2.63;;;;;;;23.46;44.83;97074.16;5024758;28;20053;-63
2023/10/29 10:51:55;;;;;;;2.83;2.72;;;;;;;23.69;44.81;97070.97;5025112;28;20060;-62
2023/10/29 10:54:22;;;;;;;2.92;2.83;;;;;;;23.30;44.81;97021.34;5025065;28;20049;-64
2023/10/29 10:56:51;;;;;;;2.83;2.72;;;;;;;23.43;45.56;97069.41;5025377;28;20133;-64
2023/10/29 10:59:19;;;;;;;2.95;2.85;;;;;;;23.57;44.82;97063.28;5007053;28;20053;-63
2023/10/29 11:01:48;;;;;;;2.30;2.30;;;;;;;23.29;44.93;97019.78;5024993;28;20278;-63
2023/10/29 11:04:15;;;;;;;3.00;2.90;;;;;;;23.32;44.49;97012.41;5024887;28;20045;-64
2023/10/29 11:06:43;;;;;;;3.00;2.90;;;;;;;23.99;44.61;97044.88;5025035;28;20136;-64
2023/10/29 11:09:12;;;;;;;3.00;2.90;;;;;;;24.36;43.24;97043.88;5025187;28;20072;-63
2023/10/29 11:11:48;;;;;;;3.08;2.97;;;;;;;23.90;43.49;97047.56;5024746;28;20045;-64
2023/10/29 11:14:19;;;;;;;2.70;2.60;;;;;;;23.71;44.59;97040.19;5011216;28;20532;-64
2023/10/29 11:16:53;;;;;;;2.90;2.80;;;;;;;24.22;43.29;97035.91;5024579;28;20049;-63
2023/10/29 11:19:44;;;;;;;2.83;2.72;;;;;;;24.31;43.08;97033.16;5024646;28;20154;-64
2023/10/29 11:22:21;;;;;;;3.08;2.97;;;;;;;24.29;43.33;97035.69;4990748;28;20042;-64
2023/10/29 11:25:11;;;;;;;2.97;2.88;;;;;;;24.67;42.56;97027.78;5004665;28;20053;-64
2023/10/29 11:27:49;;;;;;;2.95;2.85;;;;;;;24.91;42.05;97026.00;5005025;28;20054;-65
2023/10/29 11:30:18;;;;;;;3.08;2.97;;;;;;;24.62;42.06;97025.50;5004421;28;20501;-62
2023/10/29 11:32:46;;;;;;;3.45;3.35;;;;;;;25.01;41.55;97019.13;5004768;28;20152;-61
2023/10/29 11:35:16;;;;;;;3.25;3.15;;;;;;;25.24;40.62;97021.38;5004116;28;20095;-62